Etusivu
METAR-TAF:

METAR-TAF

Lentoasemat :

Waterville Robert LaFleur Airport

Waterville, Maine, Yhdysvallat

Leveyspiiri: 44-32N, Pituuspiiri: 069-41W, korkeus merenpinnasta: 101 m

Tämänhetkinen sää

Tämä raportti tehtiin 29 minuuttia sitten, kello 04.56 UTC
tyyntä
Lämpötila 7°C
Kosteus 100%
Ilmanpaine 1018 hPa
Näkyvyys: 16.1 km
selkeää

METAR: KWVL 250456Z AUTO 00000KT 10SM CLR 07/07 A3005 RMK AO2 SLP203 T00720067 401440067

Aika: 01:25 (05:25 UTC)


TAF: puuttuu

Säähavainnot ja -ennusteet yli 4000 lentoasemalta (METAR- ja TAF-raportit).

Käytössä olevat sääasemat on merkitty karttaan keltaisilla ja punaisilla pisteillä.

Aseta hiiri pisteen päälle nähdäksesi sääaseman nimen.

Klikkaa sitten nähdäksesi säähavainnot ja -ennusteet.

Kartan vaihtaminen: klikkaa mustalla rastilla varustettuja vihreitä pisteitä, niin voit zoomata sisään; viivalla varustettua vihreää pistettä, niin voit zoomata ulos tai vihreitä nuolia, niin pääset viereisille kartoille.


METAR-TAF: